Time;durP1;ratioP1;P1;durP2;ratioP2;P2;SDS_P1;SDS_P2;PMS_P1;PMS_P2;Temp;Humidity;BMP_temperature;BMP_pressure;BME280_temperature;BME280_humidity;BME280_pressure;Samples;Min_cycle;Max_cycle;Signal;HPM_P1;HPM_P2
2021/12/21 00:00:17;;;;;;;16.07;7.40;;;;;;;2.10;62.60;97341.72;5048866;28;20191;-68
2021/12/21 00:02:47;;;;;;;14.87;7.40;;;;;;;2.09;62.59;97340.06;5057494;28;20185;-69
2021/12/21 00:05:25;;;;;;;14.30;7.30;;;;;;;2.06;62.16;97341.09;5055279;28;20421;-69
2021/12/21 00:07:52;;;;;;;16.70;8.70;;;;;;;2.00;62.16;97333.72;5057649;28;20900;-69
2021/12/21 00:10:19;;;;;;;19.73;8.47;;;;;;;1.99;62.44;97327.72;5051886;28;20533;-69
2021/12/21 00:13:07;;;;;;;18.73;8.37;;;;;;;2.02;62.33;97331.88;5056833;28;21287;-69
2021/12/21 00:16:08;;;;;;;15.30;7.43;;;;;;;2.01;62.39;97334.56;5068300;28;20806;-70
2021/12/21 00:18:44;;;;;;;12.20;7.27;;;;;;;1.94;62.23;97322.00;5063538;28;20425;-69
2021/12/21 00:23:44;;;;;;;23.00;8.23;;;;;;;1.95;61.92;97330.59;5060769;28;20909;-69
2021/12/21 00:26:13;;;;;;;20.13;8.50;;;;;;;1.88;62.13;97332.72;5064739;28;20417;-69
2021/12/21 00:28:50;;;;;;;18.03;8.80;;;;;;;1.87;61.83;97328.47;5052038;28;20479;-68
2021/12/21 00:31:17;;;;;;;27.63;8.63;;;;;;;1.79;61.87;97323.78;5057488;28;20436;-69
2021/12/21 00:33:45;;;;;;;17.70;9.90;;;;;;;1.70;62.46;97326.94;5052589;28;20457;-67
2021/12/21 00:36:13;;;;;;;23.60;10.80;;;;;;;1.53;62.92;97315.88;5055226;28;20472;-69
2021/12/21 00:38:38;;;;;;;25.10;11.20;;;;;;;1.29;63.24;97323.31;5054311;28;20834;-68
2021/12/21 00:41:04;;;;;;;17.17;10.80;;;;;;;1.48;63.00;97311.91;5058283;28;20457;-68
2021/12/21 00:43:30;;;;;;;18.53;9.60;;;;;;;1.54;63.33;97314.09;5066034;28;20183;-67
2021/12/21 00:45:57;;;;;;;28.20;10.57;;;;;;;1.41;63.57;97310.59;5045037;28;20466;-69
2021/12/21 00:48:28;;;;;;;22.43;10.03;;;;;;;1.50;63.63;97320.41;5043375;28;20617;-69
2021/12/21 00:50:55;;;;;;;25.47;9.23;;;;;;;1.55;63.71;97308.00;5039752;28;20265;-69
2021/12/21 00:53:20;;;;;;;20.63;9.90;;;;;;;1.61;63.18;97302.50;5045467;28;20450;-68
2021/12/21 00:55:46;;;;;;;19.77;7.83;;;;;;;1.63;62.89;97298.06;5046326;28;20433;-68
2021/12/21 00:58:12;;;;;;;15.27;7.50;;;;;;;1.61;62.78;97297.31;5056446;28;20665;-68
2021/12/21 01:00:38;;;;;;;14.90;7.50;;;;;;;1.62;62.39;97304.16;5052735;28;20314;-68
2021/12/21 01:03:09;;;;;;;16.90;8.57;;;;;;;1.53;62.91;97299.53;5061492;28;20414;-69
2021/12/21 01:11:31;;;;;;;12.97;6.97;;;;;;;1.49;63.22;97303.22;5042540;28;20448;-67
2021/12/21 01:21:33;;;;;;;9.10;5.50;;;;;;;1.54;62.92;97290.84;5050181;28;20437;-67
2021/12/21 01:26:56;;;;;;;14.00;6.40;;;;;;;1.52;62.88;97287.53;5050877;28;20513;-68
2021/12/21 01:29:31;;;;;;;13.17;5.97;;;;;;;1.55;62.62;97287.34;5053558;28;21037;-67
2021/12/21 01:32:15;;;;;;;16.17;5.60;;;;;;;1.57;62.59;97290.66;5049385;28;20465;-68
2021/12/21 01:42:29;;;;;;;9.87;5.83;;;;;;;1.41;62.21;97300.25;5057023;28;22617;-68
2021/12/21 01:50:23;;;;;;;25.00;7.10;;;;;;;1.15;62.52;97289.75;5049355;28;20420;-69
2021/12/21 01:52:49;;;;;;;17.27;7.23;;;;;;;0.99;62.78;97287.25;5071537;28;20550;-67
2021/12/21 01:55:15;;;;;;;19.00;7.70;;;;;;;0.89;62.66;97290.38;5072789;28;20428;-67
2021/12/21 01:57:40;;;;;;;15.03;6.87;;;;;;;1.01;62.75;97293.16;5056216;28;20434;-67
2021/12/21 02:00:07;;;;;;;10.97;6.93;;;;;;;1.09;62.29;97285.78;5049329;28;20182;-67
2021/12/21 02:02:33;;;;;;;14.27;7.40;;;;;;;1.13;61.81;97289.03;5060749;28;20202;-66
2021/12/21 02:04:59;;;;;;;18.23;7.60;;;;;;;1.13;61.93;97282.09;5060820;28;20452;-67
2021/12/21 02:07:24;;;;;;;16.20;7.97;;;;;;;1.14;62.06;97282.91;5062480;28;20194;-66
2021/12/21 02:09:50;;;;;;;13.73;7.40;;;;;;;1.13;61.94;97276.94;5066483;28;20187;-67
2021/12/21 02:12:18;;;;;;;12.57;7.23;;;;;;;1.15;61.74;97282.00;5044906;28;20211;-67
2021/12/21 02:14:52;;;;;;;12.23;7.53;;;;;;;1.11;62.02;97281.34;5068040;28;20209;-67
2021/12/21 02:30:26;;;;;;;18.20;7.60;;;;;;;1.02;61.66;97277.56;5070471;28;20189;-67
2021/12/21 02:32:52;;;;;;;12.57;7.87;;;;;;;1.06;61.74;97273.06;5070632;28;20456;-68
2021/12/21 02:35:19;;;;;;;13.40;7.00;;;;;;;0.91;61.60;97279.94;5064044;28;20455;-68
2021/12/21 02:37:45;;;;;;;15.23;7.07;;;;;;;0.97;61.95;97276.19;5069529;28;20421;-67
2021/12/21 02:40:11;;;;;;;20.83;6.87;;;;;;;0.98;61.36;97270.94;5057344;28;20432;-68
2021/12/21 02:42:36;;;;;;;10.33;6.57;;;;;;;0.96;61.56;97277.09;5070472;28;20471;-68
2021/12/21 02:45:03;;;;;;;11.33;7.07;;;;;;;0.99;61.36;97275.19;5072015;28;20182;-67
2021/12/21 02:47:29;;;;;;;15.10;6.63;;;;;;;0.91;62.05;97273.06;5072864;28;20194;-68
2021/12/21 02:49:54;;;;;;;18.07;6.77;;;;;;;0.95;61.57;97268.53;5072258;28;20445;-66
2021/12/21 02:52:20;;;;;;;12.83;7.10;;;;;;;0.91;61.32;97273.06;5076036;28;20202;-66
2021/12/21 02:54:46;;;;;;;13.10;6.43;;;;;;;0.85;60.97;97262.25;5071494;28;20183;-67
2021/12/21 02:57:12;;;;;;;17.90;7.30;;;;;;;0.87;61.15;97260.44;5071223;28;20223;-66
2021/12/21 02:59:37;;;;;;;13.47;6.40;;;;;;;0.87;60.92;97268.97;5027830;28;20184;-67
2021/12/21 03:02:03;;;;;;;13.13;7.10;;;;;;;0.85;61.06;97263.06;5060625;28;20444;-67
2021/12/21 03:04:29;;;;;;;13.30;6.70;;;;;;;0.80;60.98;97265.13;5065156;28;20180;-67
2021/12/21 03:11:56;;;;;;;15.83;6.70;;;;;;;0.52;62.11;97271.03;5058841;28;20614;-68
2021/12/21 03:14:25;;;;;;;11.93;6.20;;;;;;;0.52;62.43;97273.59;5049514;28;20649;-68
2021/12/21 03:16:51;;;;;;;9.30;6.00;;;;;;;0.34;61.89;97263.44;5070656;28;20520;-66
2021/12/21 03:19:16;;;;;;;19.57;6.23;;;;;;;0.48;61.87;97277.28;5058332;28;20513;-67
2021/12/21 03:21:42;;;;;;;14.87;6.47;;;;;;;0.54;62.16;97269.19;5055853;28;20441;-67
2021/12/21 03:24:09;;;;;;;12.47;5.93;;;;;;;0.59;62.01;97277.50;5069321;28;20708;-67
2021/12/21 03:26:34;;;;;;;9.90;6.20;;;;;;;0.59;61.34;97269.75;5054960;28;20405;-67
2021/12/21 03:29:00;;;;;;;9.07;6.23;;;;;;;0.56;62.18;97267.34;5067106;28;20482;-67
2021/12/21 03:31:26;;;;;;;8.80;5.60;;;;;;;0.52;62.32;97271.03;5055761;28;20230;-68
2021/12/21 03:33:51;;;;;;;18.03;7.33;;;;;;;0.43;62.39;97268.06;5061924;28;20233;-68
2021/12/21 03:36:18;;;;;;;12.00;6.97;;;;;;;0.47;62.36;97273.03;5060788;28;20193;-66
2021/12/21 03:38:51;;;;;;;12.50;6.70;;;;;;;0.54;62.00;97266.59;5062680;28;20661;-67
2021/12/21 03:41:18;;;;;;;20.10;9.87;;;;;;;0.54;62.43;97264.03;5051116;28;20441;-67
2021/12/21 03:43:44;;;;;;;20.50;10.30;;;;;;;0.49;62.18;97263.47;5065343;28;20424;-68
2021/12/21 03:46:13;;;;;;;22.53;10.03;;;;;;;0.47;61.98;97260.16;5070422;28;20420;-68
2021/12/21 03:48:42;;;;;;;29.63;14.27;;;;;;;0.51;61.97;97270.19;5070332;28;20424;-66
2021/12/21 03:51:08;;;;;;;28.53;12.20;;;;;;;0.47;62.24;97258.38;5053439;28;20951;-66
2021/12/21 03:53:34;;;;;;;24.10;11.90;;;;;;;0.27;63.08;97262.94;5050518;28;20675;-67
2021/12/21 03:56:17;;;;;;;23.37;11.40;;;;;;;0.29;63.28;97266.28;5059944;28;20920;-68
2021/12/21 03:58:43;;;;;;;21.20;10.90;;;;;;;0.40;62.64;97265.66;5069314;28;20931;-67
2021/12/21 04:01:09;;;;;;;23.60;13.20;;;;;;;0.45;62.68;97268.81;5070578;28;20444;-67
2021/12/21 04:03:35;;;;;;;24.60;13.03;;;;;;;0.52;62.61;97269.28;5051551;28;20193;-68
2021/12/21 04:06:00;;;;;;;21.70;12.10;;;;;;;0.53;62.12;97272.69;5049273;28;20838;-68
2021/12/21 04:08:26;;;;;;;21.37;9.63;;;;;;;0.46;62.29;97277.34;5070363;28;20206;-67
2021/12/21 04:10:51;;;;;;;13.90;7.70;;;;;;;0.44;62.22;97263.75;5061339;28;20207;-67
2021/12/21 04:13:17;;;;;;;10.70;6.67;;;;;;;0.46;61.76;97261.88;5065339;28;20678;-68
2021/12/21 04:15:43;;;;;;;12.70;6.03;;;;;;;0.28;62.22;97269.75;5065575;28;20592;-67
2021/12/21 04:18:13;;;;;;;11.70;6.23;;;;;;;0.30;62.31;97261.94;5066707;28;20641;-67
2021/12/21 04:20:39;;;;;;;11.83;6.70;;;;;;;0.27;61.99;97262.94;5058281;28;20441;-67
2021/12/21 04:23:05;;;;;;;16.87;5.83;;;;;;;0.22;62.15;97264.13;5044049;28;20495;-67
2021/12/21 04:25:31;;;;;;;10.20;6.17;;;;;;;0.22;62.53;97262.38;5068660;28;20420;-67
2021/12/21 04:27:57;;;;;;;17.20;6.90;;;;;;;0.31;62.42;97268.75;5072905;28;20443;-67
2021/12/21 04:30:23;;;;;;;10.63;6.50;;;;;;;0.23;62.22;97264.03;5058191;28;20445;-67
2021/12/21 04:32:48;;;;;;;16.00;6.63;;;;;;;0.14;61.87;97269.72;5058379;28;20253;-67
2021/12/21 04:35:19;;;;;;;13.27;5.97;;;;;;;-0.06;63.25;97270.81;5061719;28;20551;-67
2021/12/21 04:38:02;;;;;;;11.03;6.97;;;;;;;-0.09;63.13;97266.66;5055878;28;20186;-67
2021/12/21 04:40:40;;;;;;;11.00;6.80;;;;;;;0.04;63.39;97268.56;5057416;28;20425;-67
2021/12/21 04:43:06;;;;;;;18.17;8.13;;;;;;;0.14;63.21;97265.38;5057079;28;20413;-67
2021/12/21 04:45:32;;;;;;;16.20;9.53;;;;;;;0.18;62.75;97263.47;5076377;28;20428;-67
2021/12/21 04:47:58;;;;;;;15.73;9.70;;;;;;;0.27;62.58;97262.09;5060927;28;20504;-67
2021/12/21 04:50:24;;;;;;;16.20;9.70;;;;;;;0.27;62.42;97257.78;5057536;28;20517;-67
2021/12/21 04:52:49;;;;;;;32.80;14.50;;;;;;;0.23;62.87;97260.63;5066527;28;20197;-68
2021/12/21 04:55:15;;;;;;;30.53;14.57;;;;;;;0.22;62.43;97256.38;5072581;28;20190;-66
2021/12/21 04:57:41;;;;;;;27.70;16.00;;;;;;;0.20;62.20;97253.06;5072342;28;20181;-66
2021/12/21 05:00:08;;;;;;;25.13;14.87;;;;;;;0.05;62.48;97247.84;5032921;28;20632;-67
2021/12/21 05:02:33;;;;;;;23.70;14.00;;;;;;;0.08;62.51;97247.69;5053114;28;20635;-68
2021/12/21 05:04:59;;;;;;;22.57;13.20;;;;;;;0.15;62.86;97250.75;5061152;28;20455;-68
2021/12/21 05:07:27;;;;;;;21.47;13.40;;;;;;;0.19;62.79;97251.41;5056751;28;20497;-68
2021/12/21 05:09:57;;;;;;;24.87;14.30;;;;;;;0.22;62.54;97256.38;5051809;28;20194;-67
2021/12/21 05:12:23;;;;;;;26.07;13.60;;;;;;;0.24;62.33;97247.63;5066091;28;20494;-67
2021/12/21 05:14:50;;;;;;;20.90;12.40;;;;;;;0.26;62.37;97244.97;5071196;28;21079;-66
2021/12/21 05:17:15;;;;;;;20.77;11.70;;;;;;;0.27;62.46;97247.47;5065387;28;20427;-67
2021/12/21 05:19:41;;;;;;;22.47;11.77;;;;;;;0.29;61.92;97239.66;5063999;28;20421;-67
2021/12/21 05:22:06;;;;;;;23.77;13.83;;;;;;;0.22;62.09;97251.22;5064570;28;20262;-67
2021/12/21 05:24:32;;;;;;;23.90;14.00;;;;;;;0.23;61.89;97245.16;5062457;28;20731;-66
2021/12/21 05:26:58;;;;;;;16.70;12.30;;;;;;;0.21;62.05;97252.16;5054426;28;20562;-68
2021/12/21 05:29:23;;;;;;;20.90;11.80;;;;;;;0.22;62.46;97243.50;5063023;28;20206;-68
2021/12/21 05:31:50;;;;;;;45.27;12.40;;;;;;;0.21;62.00;97247.00;5052439;28;20203;-68
2021/12/21 05:34:15;;;;;;;26.23;14.80;;;;;;;0.21;62.36;97240.06;5064609;28;20174;-68
2021/12/21 05:36:41;;;;;;;34.87;17.97;;;;;;;0.21;62.23;97245.22;5072651;28;20451;-67
2021/12/21 05:39:15;;;;;;;34.37;18.90;;;;;;;0.21;62.02;97239.25;5069336;28;20222;-67
2021/12/21 05:41:50;;;;;;;33.17;20.40;;;;;;;0.18;61.72;97232.53;5064587;28;20225;-66
2021/12/21 05:44:17;;;;;;;32.73;18.40;;;;;;;0.15;61.89;97233.53;5052773;28;20433;-68
2021/12/21 05:46:43;;;;;;;43.57;21.70;;;;;;;0.12;61.78;97231.13;5052758;28;20440;-68
2021/12/21 05:49:09;;;;;;;35.00;19.20;;;;;;;0.11;61.80;97232.06;5063419;28;20440;-67
2021/12/21 05:51:34;;;;;;;33.53;18.70;;;;;;;0.11;61.82;97229.47;5057506;28;20199;-66
2021/12/21 05:54:00;;;;;;;29.93;16.53;;;;;;;0.11;62.02;97226.91;5060403;28;20736;-66
2021/12/21 05:56:25;;;;;;;27.07;14.87;;;;;;;0.13;61.76;97235.34;5056248;28;20201;-67
2021/12/21 05:58:51;;;;;;;22.50;13.57;;;;;;;0.09;61.87;97235.63;5046611;28;20269;-67
2021/12/21 06:01:16;;;;;;;15.83;10.83;;;;;;;0.02;61.95;97232.53;5064343;28;20288;-67
2021/12/21 06:03:43;;;;;;;16.83;10.00;;;;;;;0.07;61.87;97235.72;5055861;28;20183;-66
2021/12/21 06:06:13;;;;;;;17.43;8.97;;;;;;;0.10;61.88;97238.13;5055940;28;20191;-67
2021/12/21 06:08:41;;;;;;;9.93;8.07;;;;;;;0.03;61.58;97241.94;5059682;28;20476;-68
2021/12/21 06:11:08;;;;;;;11.40;7.40;;;;;;;-0.04;61.95;97232.91;5061868;28;20494;-67
2021/12/21 06:22:45;;;;;;;13.70;6.93;;;;;;;-0.07;61.89;97244.22;5032480;28;20205;-67
2021/12/21 06:26:55;;;;;;;16.90;6.83;;;;;;;-0.10;62.17;97241.81;5056109;28;20566;-68
2021/12/21 06:29:21;;;;;;;12.83;7.53;;;;;;;-0.07;62.18;97240.78;5048317;28;20528;-68
2021/12/21 06:31:47;;;;;;;11.63;7.13;;;;;;;-0.07;62.28;97233.91;5066682;28;20691;-69
2021/12/21 06:34:13;;;;;;;15.03;7.87;;;;;;;-0.11;61.99;97237.56;5047620;28;20185;-67
2021/12/21 06:36:38;;;;;;;17.77;8.27;;;;;;;-0.08;62.16;97236.56;5050041;28;20449;-67
2021/12/21 06:39:06;;;;;;;11.93;7.03;;;;;;;-0.07;62.25;97231.34;5060781;28;20624;-67
2021/12/21 06:41:34;;;;;;;14.70;8.23;;;;;;;-0.11;62.45;97227.25;5063807;28;20204;-68
2021/12/21 06:44:01;;;;;;;13.20;9.07;;;;;;;-0.09;62.62;97229.75;5063545;28;20458;-68
2021/12/21 06:51:42;;;;;;;25.00;12.20;;;;;;;-0.15;62.92;97230.91;5060074;28;20216;-69
2021/12/21 06:54:07;;;;;;;22.30;12.00;;;;;;;-0.07;62.71;97223.59;5072231;28;20795;-67
2021/12/21 06:56:33;;;;;;;24.43;12.47;;;;;;;-0.04;62.50;97227.75;5058245;28;20521;-67
2021/12/21 06:58:59;;;;;;;22.67;12.30;;;;;;;-0.05;61.90;97231.25;5070445;28;20564;-67
2021/12/21 07:01:28;;;;;;;33.37;13.40;;;;;;;-0.08;62.12;97226.25;5041778;28;20285;-68
2021/12/21 07:03:54;;;;;;;32.43;14.30;;;;;;;-0.10;62.41;97230.66;5062698;28;20234;-67
2021/12/21 07:06:20;;;;;;;18.93;11.70;;;;;;;-0.16;62.12;97231.81;5063639;28;20435;-67
2021/12/21 07:08:53;;;;;;;22.73;12.40;;;;;;;-0.12;62.73;97240.22;5048661;28;20440;-66
2021/12/21 07:11:25;;;;;;;22.73;13.03;;;;;;;-0.11;62.31;97236.72;5044235;28;20427;-67
2021/12/21 07:19:20;;;;;;;16.10;10.00;;;;;;;-0.06;62.67;97237.31;5057665;28;20489;-67
2021/12/21 07:21:46;;;;;;;17.20;10.40;;;;;;;-0.14;62.02;97245.47;5059788;28;20453;-67
2021/12/21 07:24:12;;;;;;;23.67;12.47;;;;;;;-0.22;62.20;97242.47;5055284;28;20177;-68
2021/12/21 07:26:37;;;;;;;23.23;12.23;;;;;;;-0.33;63.34;97240.47;5063693;28;20240;-67
2021/12/21 07:29:04;;;;;;;22.10;12.30;;;;;;;-0.19;63.18;97250.06;5061713;28;20552;-67
2021/12/21 07:31:29;;;;;;;16.90;10.67;;;;;;;-0.07;62.92;97258.84;5057348;28;20200;-68
2021/12/21 07:33:55;;;;;;;21.20;12.20;;;;;;;-0.07;62.80;97254.53;5068647;28;20470;-67
2021/12/21 07:36:21;;;;;;;21.90;11.17;;;;;;;-0.14;62.71;97254.94;5058217;28;20213;-67
2021/12/21 07:38:46;;;;;;;30.23;11.47;;;;;;;-0.22;63.08;97261.34;5059778;28;20185;-67
2021/12/21 07:41:12;;;;;;;30.87;12.83;;;;;;;-0.14;63.47;97265.25;5069098;28;20201;-67
2021/12/21 07:43:37;;;;;;;16.20;10.77;;;;;;;-0.31;63.43;97257.50;5071347;28;20563;-69
2021/12/21 07:46:03;;;;;;;20.37;11.20;;;;;;;-0.22;63.84;97263.09;5072098;28;20185;-67
2021/12/21 07:48:29;;;;;;;20.67;11.80;;;;;;;-0.28;63.79;97271.97;5063605;28;20211;-68
2021/12/21 07:50:55;;;;;;;51.57;17.20;;;;;;;-0.40;64.87;97276.03;5052507;28;20242;-68
2021/12/21 07:53:21;;;;;;;23.30;12.67;;;;;;;-0.20;65.25;97271.56;5055657;28;20625;-67
2021/12/21 07:55:47;;;;;;;18.20;10.93;;;;;;;-0.22;65.17;97284.53;5064810;28;20504;-67
2021/12/21 07:58:13;;;;;;;25.63;12.77;;;;;;;-0.21;65.29;97282.78;5068833;28;20438;-68
2021/12/21 08:00:38;;;;;;;24.90;10.73;;;;;;;-0.16;64.99;97280.78;5055239;28;20218;-67
2021/12/21 08:03:05;;;;;;;17.73;9.73;;;;;;;-0.01;64.73;97285.09;5059894;28;20186;-67
2021/12/21 08:05:33;;;;;;;15.50;9.90;;;;;;;0.15;63.98;97272.19;5065412;28;20591;-68
2021/12/21 08:08:18;;;;;;;15.90;9.20;;;;;;;0.26;64.28;97271.59;5060479;28;20437;-67
2021/12/21 08:13:10;;;;;;;20.13;9.87;;;;;;;0.51;63.73;97277.09;5070913;28;20499;-66
2021/12/21 08:15:35;;;;;;;16.33;9.13;;;;;;;0.57;63.52;97271.59;5061206;28;20448;-67
2021/12/21 08:18:01;;;;;;;14.20;8.80;;;;;;;0.68;63.23;97266.66;5052301;28;20208;-67
2021/12/21 08:20:27;;;;;;;13.73;8.60;;;;;;;0.71;62.86;97271.63;5064279;28;20268;-67
2021/12/21 08:22:54;;;;;;;14.73;8.77;;;;;;;0.82;63.11;97267.59;5047599;28;20714;-67
2021/12/21 08:25:24;;;;;;;16.53;9.37;;;;;;;0.91;62.92;97282.53;5063185;28;20916;-66
2021/12/21 08:27:54;;;;;;;15.47;9.50;;;;;;;1.33;65.42;97277.47;5056324;28;20424;-67
2021/12/21 08:30:19;;;;;;;15.17;9.57;;;;;;;2.01;66.28;97272.50;5075488;28;20798;-66
2021/12/21 08:32:45;;;;;;;22.77;10.60;;;;;;;2.74;65.45;97277.25;5074206;28;20468;-67
2021/12/21 08:35:13;;;;;;;17.67;8.57;;;;;;;3.61;63.60;97275.78;5061806;28;20201;-66
2021/12/21 08:37:40;;;;;;;14.27;7.07;;;;;;;4.21;61.85;97262.91;5068237;28;20202;-66
2021/12/21 08:40:07;;;;;;;12.60;6.47;;;;;;;4.51;55.34;97269.44;5068481;28;20982;-67
2021/12/21 08:42:35;;;;;;;11.37;6.53;;;;;;;4.27;53.59;97283.25;5061281;28;20437;-68
2021/12/21 08:45:06;;;;;;;23.87;12.20;;;;;;;3.59;53.59;97277.66;5055835;28;20429;-67
2021/12/21 08:47:35;;;;;;;16.80;7.40;;;;;;;3.35;54.46;97286.19;5068818;28;20426;-69
2021/12/21 08:50:03;;;;;;;14.83;6.53;;;;;;;3.01;54.93;97285.88;5053130;28;20984;-67
2021/12/21 08:52:28;;;;;;;11.37;6.30;;;;;;;2.93;55.53;97288.97;5062846;28;20536;-68
2021/12/21 08:54:54;;;;;;;19.60;7.07;;;;;;;2.72;56.13;97288.63;5064086;28;20849;-68
2021/12/21 08:57:19;;;;;;;15.43;9.50;;;;;;;2.70;55.95;97282.72;5060471;28;20197;-67
2021/12/21 08:59:45;;;;;;;15.93;10.90;;;;;;;2.64;57.25;97277.97;5065856;28;20179;-67
2021/12/21 09:02:11;;;;;;;15.80;9.03;;;;;;;2.36;57.84;97277.19;5070104;28;20282;-67
2021/12/21 09:04:36;;;;;;;11.67;7.80;;;;;;;2.50;57.38;97273.69;5060624;28;20182;-68
2021/12/21 09:07:03;;;;;;;17.23;8.77;;;;;;;2.46;57.99;97265.28;5073012;28;20178;-69
2021/12/21 09:09:30;;;;;;;12.23;8.03;;;;;;;2.39;57.97;97267.44;5063903;28;20687;-68
2021/12/21 09:11:57;;;;;;;13.70;9.40;;;;;;;1.99;59.85;97265.69;5073390;28;20558;-68
2021/12/21 09:14:22;;;;;;;19.47;11.23;;;;;;;2.39;59.53;97261.47;5063328;28;20417;-68
2021/12/21 09:16:49;;;;;;;18.83;11.43;;;;;;;2.08;59.30;97263.41;5071138;28;20428;-67
2021/12/21 09:19:16;;;;;;;10.80;6.53;;;;;;;2.34;58.80;97263.50;5070155;28;20274;-67
2021/12/21 09:21:42;;;;;;;14.50;7.03;;;;;;;2.50;58.47;97269.34;5062720;28;20499;-67
2021/12/21 09:24:08;;;;;;;12.47;7.27;;;;;;;2.34;59.16;97268.69;5071913;28;20460;-67
2021/12/21 09:26:35;;;;;;;21.60;7.30;;;;;;;2.69;59.27;97268.97;5064849;28;20456;-68
2021/12/21 09:29:01;;;;;;;11.20;7.27;;;;;;;2.79;58.38;97269.16;5073659;28;20459;-67
2021/12/21 09:31:26;;;;;;;20.00;10.43;;;;;;;2.79;58.38;97274.34;5060141;28;20563;-68
2021/12/21 09:33:52;;;;;;;15.07;9.43;;;;;;;3.06;57.97;97273.44;5062298;28;20482;-69
2021/12/21 09:36:18;;;;;;;11.43;7.77;;;;;;;3.11;58.36;97258.44;5073833;28;20210;-68
2021/12/21 09:38:44;;;;;;;11.23;7.80;;;;;;;3.06;58.24;97276.03;5061608;28;20430;-69
2021/12/21 09:41:11;;;;;;;13.80;7.80;;;;;;;3.09;57.52;97260.28;5068706;28;20207;-67
2021/12/21 09:43:40;;;;;;;13.40;7.80;;;;;;;3.04;57.73;97270.97;5060238;28;20422;-69
2021/12/21 09:46:07;;;;;;;14.23;8.40;;;;;;;2.93;58.57;97268.25;5052247;28;20916;-67
2021/12/21 09:48:33;;;;;;;20.63;9.70;;;;;;;3.17;58.13;97263.19;5068938;28;20801;-68
2021/12/21 09:50:58;;;;;;;12.93;7.17;;;;;;;3.06;57.59;97265.66;5062257;28;20448;-67
2021/12/21 09:53:26;;;;;;;14.80;7.00;;;;;;;2.96;58.08;97264.63;5074335;28;20734;-68
2021/12/21 09:55:51;;;;;;;13.73;7.73;;;;;;;3.00;56.97;97268.69;5068349;28;20531;-68
2021/12/21 09:58:17;;;;;;;12.73;8.17;;;;;;;3.07;57.88;97272.50;5072203;28;20436;-69
2021/12/21 10:00:43;;;;;;;13.27;8.03;;;;;;;3.20;57.77;97265.56;5056091;28;20241;-68
2021/12/21 10:03:10;;;;;;;8.00;6.37;;;;;;;3.30;57.55;97262.34;5071892;28;20421;-67
2021/12/21 10:05:41;;;;;;;10.10;6.70;;;;;;;3.45;57.44;97263.06;5059156;28;20193;-68
2021/12/21 10:08:18;;;;;;;9.50;6.33;;;;;;;3.42;56.90;97251.13;5050894;28;20518;-67
2021/12/21 10:10:52;;;;;;;10.57;6.70;;;;;;;3.56;56.79;97252.78;5053139;28;20479;-68
2021/12/21 10:13:22;;;;;;;9.67;7.07;;;;;;;3.73;57.07;97249.00;5060091;28;20453;-69
2021/12/21 10:15:51;;;;;;;12.17;8.40;;;;;;;3.66;56.46;97252.94;5064051;28;20430;-68
2021/12/21 10:18:25;;;;;;;10.67;6.70;;;;;;;5.13;63.95;97244.88;5069923;28;20421;-67
2021/12/21 10:20:52;;;;;;;12.00;6.07;;;;;;;5.99;60.11;97245.19;5060952;28;20517;-68
2021/12/21 10:23:25;;;;;;;14.07;7.03;;;;;;;6.00;57.24;97238.19;5063355;28;20441;-66
2021/12/21 10:25:53;;;;;;;12.00;5.90;;;;;;;7.06;56.68;97240.88;5054683;28;20836;-67
2021/12/21 10:28:34;;;;;;;8.83;5.53;;;;;;;7.37;52.82;97235.69;5063837;28;20454;-67
2021/12/21 10:31:11;;;;;;;10.87;5.67;;;;;;;7.99;55.30;97233.78;5062235;28;20456;-66
2021/12/21 10:33:38;;;;;;;9.80;5.50;;;;;;;8.48;52.04;97237.41;5065758;28;20459;-66
2021/12/21 10:36:06;;;;;;;10.87;5.13;;;;;;;8.88;50.27;97231.97;5062975;28;20974;-68
2021/12/21 10:38:33;;;;;;;8.40;5.60;;;;;;;8.98;45.06;97225.94;5067479;28;21044;-67
2021/12/21 10:41:09;;;;;;;10.80;4.90;;;;;;;8.88;50.44;97223.34;5049713;28;20454;-66
2021/12/21 10:43:34;;;;;;;8.70;5.60;;;;;;;8.68;47.56;97223.38;5061086;28;20421;-66
2021/12/21 10:46:00;;;;;;;8.03;5.50;;;;;;;8.52;50.79;97223.13;5042952;28;20444;-65
2021/12/21 10:48:26;;;;;;;10.03;5.40;;;;;;;8.55;49.08;97218.44;5039525;28;20180;-66
2021/12/21 10:50:52;;;;;;;8.20;5.03;;;;;;;8.61;47.34;97219.66;5056237;28;20558;-66
2021/12/21 10:53:24;;;;;;;16.10;5.33;;;;;;;9.04;48.71;97222.72;5064050;28;20691;-67
2021/12/21 10:56:05;;;;;;;9.10;4.90;;;;;;;9.05;45.66;97212.16;5062169;28;20646;-68
2021/12/21 10:58:31;;;;;;;7.23;5.13;;;;;;;9.18;45.50;97209.19;5058384;28;20413;-66
2021/12/21 11:01:02;;;;;;;16.73;5.90;;;;;;;9.41;45.46;97208.03;5069398;28;20455;-66
2021/12/21 11:03:40;;;;;;;15.13;5.37;;;;;;;9.45;46.46;97212.81;5065162;28;20520;-66
2021/12/21 11:06:34;;;;;;;21.40;11.20;;;;;;;9.29;46.52;97202.13;5071539;28;20943;-66
2021/12/21 11:09:04;;;;;;;10.90;5.80;;;;;;;8.59;44.99;97204.13;5064499;28;20430;-67
2021/12/21 11:11:33;;;;;;;10.27;5.90;;;;;;;8.54;49.91;97206.34;5062923;28;20463;-66
2021/12/21 11:14:01;;;;;;;13.00;6.60;;;;;;;8.96;46.69;97199.91;5060106;28;20943;-66
2021/12/21 11:16:35;;;;;;;18.00;6.00;;;;;;;9.27;48.51;97207.53;5065368;28;20808;-65
2021/12/21 11:19:00;;;;;;;18.03;5.30;;;;;;;9.61;46.77;97199.09;5070447;28;20428;-68
2021/12/21 11:21:27;;;;;;;10.47;5.20;;;;;;;9.99;46.62;97199.00;5061347;28;21110;-65
2021/12/21 11:23:53;;;;;;;11.40;5.23;;;;;;;10.39;45.41;97196.94;5068348;28;20255;-65
2021/12/21 11:26:18;;;;;;;7.03;5.13;;;;;;;10.36;45.73;97197.19;5057355;28;20421;-66
2021/12/21 11:28:44;;;;;;;7.70;5.30;;;;;;;9.55;42.38;97186.63;5067406;28;20417;-65
2021/12/21 11:31:10;;;;;;;18.83;5.80;;;;;;;9.79;46.12;97182.63;5068734;28;20334;-68
2021/12/21 11:33:44;;;;;;;11.23;4.97;;;;;;;9.64;46.62;97177.06;5070959;28;20198;-68
2021/12/21 11:38:57;;;;;;;7.10;5.57;;;;;;;9.87;42.70;97181.88;5057090;28;20430;-66
2021/12/21 11:41:23;;;;;;;16.03;5.17;;;;;;;9.53;44.44;97176.28;5059675;28;20987;-67
2021/12/21 11:44:18;;;;;;;9.97;6.73;;;;;;;9.51;42.76;97182.63;5024916;28;20175;-67
2021/12/21 11:46:58;;;;;;;12.83;6.33;;;;;;;8.97;42.62;97188.50;5062510;28;20452;-67
2021/12/21 11:49:38;;;;;;;12.83;6.83;;;;;;;9.19;46.59;97178.66;5054303;28;20857;-66
2021/12/21 11:52:06;;;;;;;10.30;5.43;;;;;;;9.68;44.81;97168.78;5052425;28;20478;-66
2021/12/21 11:54:42;;;;;;;9.33;5.67;;;;;;;9.60;43.85;97173.91;5065945;28;20433;-66
2021/12/21 11:57:07;;;;;;;7.03;5.30;;;;;;;9.43;45.14;97172.91;5070463;28;20484;-66
2021/12/21 11:59:33;;;;;;;14.03;6.07;;;;;;;9.52;43.88;97166.78;5069370;28;20985;-67
2021/12/21 12:02:01;;;;;;;10.37;5.40;;;;;;;9.50;43.31;97158.28;5059399;28;20210;-67
2021/12/21 12:04:27;;;;;;;9.93;5.70;;;;;;;9.58;44.58;97156.72;5061046;28;20518;-67
2021/12/21 12:06:55;;;;;;;14.30;6.80;;;;;;;9.22;45.03;97163.50;5062213;28;20475;-67
2021/12/21 12:09:26;;;;;;;10.40;5.70;;;;;;;9.53;44.91;97162.38;5058939;28;20174;-66
2021/12/21 12:11:53;;;;;;;7.43;6.00;;;;;;;9.20;44.16;97164.59;5063701;28;20955;-67
2021/12/21 12:14:22;;;;;;;6.60;4.90;;;;;;;9.43;45.14;97166.84;5073559;28;20420;-66
2021/12/21 12:16:55;;;;;;;11.13;5.83;;;;;;;9.34;43.19;97165.94;5075529;28;20443;-66
2021/12/21 12:19:27;;;;;;;9.80;6.07;;;;;;;9.73;42.15;97159.63;5069347;28;20967;-66
2021/12/21 12:21:56;;;;;;;8.50;6.27;;;;;;;9.59;42.39;97164.41;5042177;28;20946;-68
2021/12/21 12:24:23;;;;;;;8.63;6.20;;;;;;;9.11;43.87;97160.25;5063367;28;20421;-66
2021/12/21 12:27:20;;;;;;;10.23;6.20;;;;;;;9.51;43.10;97165.13;5072300;28;20431;-66
2021/12/21 12:29:56;;;;;;;10.43;5.80;;;;;;;9.97;44.96;97169.53;5071045;28;20870;-66
2021/12/21 12:32:34;;;;;;;12.40;6.90;;;;;;;10.54;41.07;97158.75;5052039;28;20460;-68
2021/12/21 12:35:11;;;;;;;10.43;6.17;;;;;;;9.89;41.91;97148.53;5065597;28;20783;-67
2021/12/21 12:37:58;;;;;;;15.10;7.57;;;;;;;10.22;40.23;97157.47;5063790;28;20420;-67
2021/12/21 12:40:30;;;;;;;8.93;6.10;;;;;;;10.78;43.15;97153.78;5075230;28;20445;-68
2021/12/21 12:43:08;;;;;;;8.90;6.40;;;;;;;10.88;40.71;97147.47;5055957;28;20436;-67
2021/12/21 12:46:02;;;;;;;9.80;5.30;;;;;;;11.17;41.27;97148.94;5064908;28;20417;-68
2021/12/21 12:48:40;;;;;;;11.53;5.37;;;;;;;12.02;39.96;97141.94;5067144;28;20906;-69
2021/12/21 12:51:07;;;;;;;10.00;5.97;;;;;;;12.00;35.29;97143.91;5071755;28;20954;-69
2021/12/21 12:53:42;;;;;;;13.87;5.50;;;;;;;8.79;41.92;97151.00;5062406;28;20879;-67